sensor_id;sensor_type;location;lat;lon;timestamp;P1;durP1;ratioP1;P2;durP2;ratioP2
23747;SDS011;12054;53.662;10.126;2023-07-13T00:00:12;6.93;;;3.20;;
23747;SDS011;12054;53.662;10.126;2023-07-13T00:02:41;8.70;;;3.85;;
23747;SDS011;12054;53.662;10.126;2023-07-13T00:05:07;5.07;;;3.58;;
23747;SDS011;12054;53.662;10.126;2023-07-13T00:07:33;6.78;;;3.20;;
23747;SDS011;12054;53.662;10.126;2023-07-13T00:09:59;5.22;;;3.88;;
23747;SDS011;12054;53.662;10.126;2023-07-13T00:12:27;8.40;;;4.28;;
23747;SDS011;12054;53.662;10.126;2023-07-13T00:14:58;5.10;;;2.85;;
23747;SDS011;12054;53.662;10.126;2023-07-13T00:17:26;57.63;;;5.50;;
23747;SDS011;12054;53.662;10.126;2023-07-13T00:19:52;25.13;;;4.90;;
23747;SDS011;12054;53.662;10.126;2023-07-13T00:22:20;16.88;;;3.92;;
23747;SDS011;12054;53.662;10.126;2023-07-13T00:24:46;3.95;;;3.42;;
23747;SDS011;12054;53.662;10.126;2023-07-13T00:27:12;3.58;;;3.10;;
23747;SDS011;12054;53.662;10.126;2023-07-13T00:29:38;7.53;;;3.78;;
23747;SDS011;12054;53.662;10.126;2023-07-13T00:32:04;4.50;;;3.35;;
23747;SDS011;12054;53.662;10.126;2023-07-13T00:34:31;3.72;;;2.90;;
23747;SDS011;12054;53.662;10.126;2023-07-13T00:36:57;57.83;;;5.40;;
23747;SDS011;12054;53.662;10.126;2023-07-13T00:39:23;6.60;;;3.95;;
23747;SDS011;12054;53.662;10.126;2023-07-13T00:41:49;6.50;;;3.50;;
23747;SDS011;12054;53.662;10.126;2023-07-13T00:44:15;3.72;;;3.38;;
23747;SDS011;12054;53.662;10.126;2023-07-13T00:46:42;4.97;;;3.28;;
23747;SDS011;12054;53.662;10.126;2023-07-13T00:49:09;6.35;;;3.42;;
23747;SDS011;12054;53.662;10.126;2023-07-13T00:51:43;5.80;;;3.45;;
23747;SDS011;12054;53.662;10.126;2023-07-13T00:54:17;6.22;;;3.67;;
23747;SDS011;12054;53.662;10.126;2023-07-13T00:56:45;6.80;;;3.58;;
23747;SDS011;12054;53.662;10.126;2023-07-13T00:59:14;4.97;;;3.55;;
23747;SDS011;12054;53.662;10.126;2023-07-13T01:01:43;5.78;;;4.13;;
23747;SDS011;12054;53.662;10.126;2023-07-13T01:04:09;5.72;;;3.47;;
23747;SDS011;12054;53.662;10.126;2023-07-13T01:06:36;5.18;;;3.72;;
23747;SDS011;12054;53.662;10.126;2023-07-13T01:09:03;7.03;;;3.65;;
23747;SDS011;12054;53.662;10.126;2023-07-13T01:11:30;5.38;;;3.67;;
23747;SDS011;12054;53.662;10.126;2023-07-13T01:13:55;4.68;;;3.50;;
23747;SDS011;12054;53.662;10.126;2023-07-13T01:16:25;4.25;;;3.33;;
23747;SDS011;12054;53.662;10.126;2023-07-13T01:18:53;5.45;;;3.80;;
23747;SDS011;12054;53.662;10.126;2023-07-13T01:21:19;7.05;;;3.80;;
23747;SDS011;12054;53.662;10.126;2023-07-13T01:23:45;7.35;;;3.55;;
23747;SDS011;12054;53.662;10.126;2023-07-13T01:26:11;7.40;;;3.50;;
23747;SDS011;12054;53.662;10.126;2023-07-13T01:28:37;4.82;;;3.50;;
23747;SDS011;12054;53.662;10.126;2023-07-13T01:31:03;5.63;;;3.60;;
23747;SDS011;12054;53.662;10.126;2023-07-13T01:33:28;4.78;;;3.30;;
23747;SDS011;12054;53.662;10.126;2023-07-13T01:35:54;6.45;;;3.70;;
23747;SDS011;12054;53.662;10.126;2023-07-13T01:38:22;5.63;;;3.95;;
23747;SDS011;12054;53.662;10.126;2023-07-13T01:40:50;4.05;;;3.50;;
23747;SDS011;12054;53.662;10.126;2023-07-13T01:43:16;3.85;;;2.97;;
23747;SDS011;12054;53.662;10.126;2023-07-13T01:45:42;6.13;;;3.08;;
23747;SDS011;12054;53.662;10.126;2023-07-13T01:48:09;5.65;;;3.10;;
23747;SDS011;12054;53.662;10.126;2023-07-13T01:50:35;5.28;;;3.38;;
23747;SDS011;12054;53.662;10.126;2023-07-13T01:53:00;3.42;;;3.05;;
23747;SDS011;12054;53.662;10.126;2023-07-13T01:55:27;5.28;;;3.55;;
23747;SDS011;12054;53.662;10.126;2023-07-13T01:57:53;5.40;;;2.92;;
23747;SDS011;12054;53.662;10.126;2023-07-13T02:00:19;5.20;;;3.10;;
23747;SDS011;12054;53.662;10.126;2023-07-13T02:02:44;5.45;;;3.20;;
23747;SDS011;12054;53.662;10.126;2023-07-13T02:05:10;3.85;;;2.90;;
23747;SDS011;12054;53.662;10.126;2023-07-13T02:07:37;4.40;;;2.78;;
23747;SDS011;12054;53.662;10.126;2023-07-13T02:10:02;4.75;;;2.72;;
23747;SDS011;12054;53.662;10.126;2023-07-13T02:12:28;4.45;;;2.88;;
23747;SDS011;12054;53.662;10.126;2023-07-13T02:14:54;6.25;;;2.80;;
23747;SDS011;12054;53.662;10.126;2023-07-13T02:17:19;5.80;;;3.00;;
23747;SDS011;12054;53.662;10.126;2023-07-13T02:19:45;5.85;;;3.17;;
23747;SDS011;12054;53.662;10.126;2023-07-13T02:22:10;2.90;;;2.65;;
23747;SDS011;12054;53.662;10.126;2023-07-13T02:24:36;5.47;;;3.20;;
23747;SDS011;12054;53.662;10.126;2023-07-13T02:27:03;4.03;;;3.28;;
23747;SDS011;12054;53.662;10.126;2023-07-13T02:29:29;5.15;;;3.30;;
23747;SDS011;12054;53.662;10.126;2023-07-13T02:31:54;7.53;;;2.97;;
23747;SDS011;12054;53.662;10.126;2023-07-13T02:34:20;6.20;;;3.30;;
23747;SDS011;12054;53.662;10.126;2023-07-13T02:36:45;5.18;;;3.35;;
23747;SDS011;12054;53.662;10.126;2023-07-13T02:39:12;6.03;;;3.45;;
23747;SDS011;12054;53.662;10.126;2023-07-13T02:41:38;4.55;;;3.22;;
23747;SDS011;12054;53.662;10.126;2023-07-13T02:44:03;5.03;;;3.40;;
23747;SDS011;12054;53.662;10.126;2023-07-13T02:46:30;3.78;;;3.38;;
23747;SDS011;12054;53.662;10.126;2023-07-13T02:48:56;4.97;;;3.22;;
23747;SDS011;12054;53.662;10.126;2023-07-13T02:51:22;5.63;;;3.78;;
23747;SDS011;12054;53.662;10.126;2023-07-13T02:53:47;6.97;;;3.70;;
23747;SDS011;12054;53.662;10.126;2023-07-13T02:56:13;6.95;;;4.00;;
23747;SDS011;12054;53.662;10.126;2023-07-13T02:58:38;7.22;;;4.00;;
23747;SDS011;12054;53.662;10.126;2023-07-13T03:01:10;5.82;;;4.22;;
23747;SDS011;12054;53.662;10.126;2023-07-13T03:03:37;6.75;;;3.95;;
23747;SDS011;12054;53.662;10.126;2023-07-13T03:06:04;6.13;;;4.20;;
23747;SDS011;12054;53.662;10.126;2023-07-13T03:08:32;6.13;;;4.00;;
23747;SDS011;12054;53.662;10.126;2023-07-13T03:11:01;5.75;;;4.50;;
23747;SDS011;12054;53.662;10.126;2023-07-13T03:13:39;6.95;;;4.65;;
23747;SDS011;12054;53.662;10.126;2023-07-13T03:16:06;6.50;;;4.40;;
23747;SDS011;12054;53.662;10.126;2023-07-13T03:18:32;6.20;;;4.97;;
23747;SDS011;12054;53.662;10.126;2023-07-13T03:20:58;7.18;;;4.97;;
23747;SDS011;12054;53.662;10.126;2023-07-13T03:23:23;7.82;;;4.55;;
23747;SDS011;12054;53.662;10.126;2023-07-13T03:25:49;7.30;;;4.97;;
23747;SDS011;12054;53.662;10.126;2023-07-13T03:28:15;7.95;;;5.28;;
23747;SDS011;12054;53.662;10.126;2023-07-13T03:30:41;6.50;;;4.90;;
23747;SDS011;12054;53.662;10.126;2023-07-13T03:33:07;6.97;;;5.25;;
23747;SDS011;12054;53.662;10.126;2023-07-13T03:35:33;7.82;;;5.18;;
23747;SDS011;12054;53.662;10.126;2023-07-13T03:37:59;6.75;;;5.32;;
23747;SDS011;12054;53.662;10.126;2023-07-13T03:40:25;5.45;;;4.95;;
23747;SDS011;12054;53.662;10.126;2023-07-13T03:42:52;7.90;;;5.57;;
23747;SDS011;12054;53.662;10.126;2023-07-13T03:45:17;10.10;;;4.97;;
23747;SDS011;12054;53.662;10.126;2023-07-13T03:47:43;6.93;;;5.40;;
23747;SDS011;12054;53.662;10.126;2023-07-13T03:50:10;6.57;;;5.43;;
23747;SDS011;12054;53.662;10.126;2023-07-13T03:52:35;6.95;;;5.35;;
23747;SDS011;12054;53.662;10.126;2023-07-13T03:55:01;5.82;;;5.20;;
23747;SDS011;12054;53.662;10.126;2023-07-13T03:57:26;9.02;;;5.38;;
23747;SDS011;12054;53.662;10.126;2023-07-13T03:59:52;8.60;;;5.38;;
23747;SDS011;12054;53.662;10.126;2023-07-13T04:02:17;6.20;;;5.40;;
23747;SDS011;12054;53.662;10.126;2023-07-13T04:04:43;6.63;;;5.50;;
23747;SDS011;12054;53.662;10.126;2023-07-13T04:07:09;8.77;;;5.95;;
23747;SDS011;12054;53.662;10.126;2023-07-13T04:09:34;8.05;;;5.65;;
23747;SDS011;12054;53.662;10.126;2023-07-13T04:12:00;8.57;;;5.47;;
23747;SDS011;12054;53.662;10.126;2023-07-13T04:14:26;6.10;;;5.35;;
23747;SDS011;12054;53.662;10.126;2023-07-13T04:16:52;8.65;;;6.20;;
23747;SDS011;12054;53.662;10.126;2023-07-13T04:19:19;7.18;;;5.78;;
23747;SDS011;12054;53.662;10.126;2023-07-13T04:21:45;8.77;;;6.07;;
23747;SDS011;12054;53.662;10.126;2023-07-13T04:24:10;8.40;;;5.68;;
23747;SDS011;12054;53.662;10.126;2023-07-13T04:26:36;9.85;;;5.95;;
23747;SDS011;12054;53.662;10.126;2023-07-13T04:29:03;8.60;;;6.00;;
23747;SDS011;12054;53.662;10.126;2023-07-13T04:31:29;6.40;;;5.80;;
23747;SDS011;12054;53.662;10.126;2023-07-13T04:33:55;8.75;;;6.40;;
23747;SDS011;12054;53.662;10.126;2023-07-13T04:36:20;9.30;;;5.97;;
23747;SDS011;12054;53.662;10.126;2023-07-13T04:38:46;8.10;;;5.93;;
23747;SDS011;12054;53.662;10.126;2023-07-13T04:41:12;6.40;;;5.45;;
23747;SDS011;12054;53.662;10.126;2023-07-13T04:43:39;7.63;;;5.90;;
23747;SDS011;12054;53.662;10.126;2023-07-13T04:46:06;7.00;;;5.45;;
23747;SDS011;12054;53.662;10.126;2023-07-13T04:48:33;8.85;;;5.72;;
23747;SDS011;12054;53.662;10.126;2023-07-13T04:50:59;8.07;;;5.38;;
23747;SDS011;12054;53.662;10.126;2023-07-13T04:53:25;7.88;;;5.50;;
23747;SDS011;12054;53.662;10.126;2023-07-13T04:55:51;10.27;;;5.30;;
23747;SDS011;12054;53.662;10.126;2023-07-13T04:58:17;7.10;;;5.07;;
23747;SDS011;12054;53.662;10.126;2023-07-13T05:00:43;7.50;;;5.38;;
23747;SDS011;12054;53.662;10.126;2023-07-13T05:03:08;8.35;;;5.78;;
23747;SDS011;12054;53.662;10.126;2023-07-13T05:05:34;7.20;;;5.30;;
23747;SDS011;12054;53.662;10.126;2023-07-13T05:08:00;8.93;;;5.45;;
23747;SDS011;12054;53.662;10.126;2023-07-13T05:10:25;8.50;;;4.57;;
23747;SDS011;12054;53.662;10.126;2023-07-13T05:12:51;7.95;;;4.70;;
23747;SDS011;12054;53.662;10.126;2023-07-13T05:15:17;11.40;;;5.18;;
23747;SDS011;12054;53.662;10.126;2023-07-13T05:17:46;7.60;;;4.93;;
23747;SDS011;12054;53.662;10.126;2023-07-13T05:20:15;9.57;;;4.93;;
23747;SDS011;12054;53.662;10.126;2023-07-13T05:22:42;7.82;;;4.72;;
23747;SDS011;12054;53.662;10.126;2023-07-13T05:25:08;7.85;;;4.65;;
23747;SDS011;12054;53.662;10.126;2023-07-13T05:27:34;9.93;;;4.47;;
23747;SDS011;12054;53.662;10.126;2023-07-13T05:30:00;9.30;;;4.40;;
23747;SDS011;12054;53.662;10.126;2023-07-13T05:32:26;8.27;;;4.28;;
23747;SDS011;12054;53.662;10.126;2023-07-13T05:34:51;7.57;;;4.20;;
23747;SDS011;12054;53.662;10.126;2023-07-13T05:37:17;9.25;;;4.20;;
23747;SDS011;12054;53.662;10.126;2023-07-13T05:39:43;6.95;;;4.18;;
23747;SDS011;12054;53.662;10.126;2023-07-13T05:42:09;12.00;;;4.60;;
23747;SDS011;12054;53.662;10.126;2023-07-13T05:44:34;9.52;;;4.50;;
23747;SDS011;12054;53.662;10.126;2023-07-13T05:47:00;6.40;;;3.80;;
23747;SDS011;12054;53.662;10.126;2023-07-13T05:49:25;9.18;;;4.60;;
23747;SDS011;12054;53.662;10.126;2023-07-13T05:51:51;6.72;;;4.28;;
23747;SDS011;12054;53.662;10.126;2023-07-13T05:54:16;14.73;;;4.78;;
23747;SDS011;12054;53.662;10.126;2023-07-13T05:56:42;10.55;;;4.32;;
23747;SDS011;12054;53.662;10.126;2023-07-13T05:59:07;11.05;;;4.85;;
23747;SDS011;12054;53.662;10.126;2023-07-13T06:01:33;10.43;;;4.68;;
23747;SDS011;12054;53.662;10.126;2023-07-13T06:03:58;11.57;;;4.20;;
23747;SDS011;12054;53.662;10.126;2023-07-13T06:06:24;8.68;;;4.65;;
23747;SDS011;12054;53.662;10.126;2023-07-13T06:08:49;9.68;;;4.70;;
23747;SDS011;12054;53.662;10.126;2023-07-13T06:11:22;11.48;;;4.60;;
23747;SDS011;12054;53.662;10.126;2023-07-13T06:13:49;11.70;;;4.40;;
23747;SDS011;12054;53.662;10.126;2023-07-13T06:16:15;10.52;;;4.80;;
23747;SDS011;12054;53.662;10.126;2023-07-13T06:18:41;8.32;;;4.18;;
23747;SDS011;12054;53.662;10.126;2023-07-13T06:21:11;10.38;;;4.32;;
23747;SDS011;12054;53.662;10.126;2023-07-13T06:23:39;12.38;;;4.57;;
23747;SDS011;12054;53.662;10.126;2023-07-13T06:26:04;9.32;;;4.25;;
23747;SDS011;12054;53.662;10.126;2023-07-13T06:28:31;9.73;;;4.32;;
23747;SDS011;12054;53.662;10.126;2023-07-13T06:30:57;9.70;;;4.95;;
23747;SDS011;12054;53.662;10.126;2023-07-13T06:33:24;8.15;;;4.07;;
23747;SDS011;12054;53.662;10.126;2023-07-13T06:35:50;9.25;;;4.20;;
23747;SDS011;12054;53.662;10.126;2023-07-13T06:38:15;9.95;;;4.00;;
23747;SDS011;12054;53.662;10.126;2023-07-13T06:40:41;9.25;;;4.03;;
23747;SDS011;12054;53.662;10.126;2023-07-13T06:43:07;10.90;;;4.35;;
23747;SDS011;12054;53.662;10.126;2023-07-13T06:45:35;6.97;;;4.93;;
23747;SDS011;12054;53.662;10.126;2023-07-13T06:48:05;8.13;;;3.92;;
23747;SDS011;12054;53.662;10.126;2023-07-13T06:50:31;14.40;;;5.47;;
23747;SDS011;12054;53.662;10.126;2023-07-13T06:52:56;8.93;;;4.00;;
23747;SDS011;12054;53.662;10.126;2023-07-13T06:55:21;10.43;;;3.85;;
23747;SDS011;12054;53.662;10.126;2023-07-13T06:57:47;7.30;;;3.75;;
23747;SDS011;12054;53.662;10.126;2023-07-13T07:00:13;8.05;;;3.70;;
23747;SDS011;12054;53.662;10.126;2023-07-13T07:02:39;6.75;;;3.53;;
23747;SDS011;12054;53.662;10.126;2023-07-13T07:05:04;8.68;;;3.28;;
23747;SDS011;12054;53.662;10.126;2023-07-13T07:07:30;7.90;;;3.55;;
23747;SDS011;12054;53.662;10.126;2023-07-13T07:09:55;8.50;;;3.72;;
23747;SDS011;12054;53.662;10.126;2023-07-13T07:12:21;9.75;;;3.80;;
23747;SDS011;12054;53.662;10.126;2023-07-13T07:14:46;8.32;;;3.40;;
23747;SDS011;12054;53.662;10.126;2023-07-13T07:17:12;10.80;;;3.63;;
23747;SDS011;12054;53.662;10.126;2023-07-13T07:19:37;8.70;;;3.00;;
23747;SDS011;12054;53.662;10.126;2023-07-13T07:22:03;6.93;;;3.08;;
23747;SDS011;12054;53.662;10.126;2023-07-13T07:24:29;10.88;;;3.65;;
23747;SDS011;12054;53.662;10.126;2023-07-13T07:26:54;6.82;;;3.30;;
23747;SDS011;12054;53.662;10.126;2023-07-13T07:29:21;7.30;;;3.10;;
23747;SDS011;12054;53.662;10.126;2023-07-13T07:31:47;9.73;;;3.20;;
23747;SDS011;12054;53.662;10.126;2023-07-13T07:34:12;9.38;;;2.90;;
23747;SDS011;12054;53.662;10.126;2023-07-13T07:36:38;9.65;;;2.60;;
23747;SDS011;12054;53.662;10.126;2023-07-13T07:39:03;10.25;;;2.70;;
23747;SDS011;12054;53.662;10.126;2023-07-13T07:41:29;9.00;;;2.70;;
23747;SDS011;12054;53.662;10.126;2023-07-13T07:43:55;11.02;;;2.70;;
23747;SDS011;12054;53.662;10.126;2023-07-13T07:46:20;8.65;;;2.53;;
23747;SDS011;12054;53.662;10.126;2023-07-13T07:48:46;9.45;;;3.08;;
23747;SDS011;12054;53.662;10.126;2023-07-13T07:51:12;4.70;;;2.08;;
23747;SDS011;12054;53.662;10.126;2023-07-13T07:53:37;6.55;;;2.40;;
23747;SDS011;12054;53.662;10.126;2023-07-13T07:56:03;4.88;;;2.28;;
23747;SDS011;12054;53.662;10.126;2023-07-13T07:58:28;5.60;;;2.35;;
23747;SDS011;12054;53.662;10.126;2023-07-13T08:00:54;5.45;;;2.20;;
23747;SDS011;12054;53.662;10.126;2023-07-13T08:03:26;10.02;;;2.67;;
23747;SDS011;12054;53.662;10.126;2023-07-13T08:05:55;6.35;;;2.65;;
23747;SDS011;12054;53.662;10.126;2023-07-13T08:08:20;5.32;;;2.28;;
23747;SDS011;12054;53.662;10.126;2023-07-13T08:10:45;4.32;;;2.35;;
23747;SDS011;12054;53.662;10.126;2023-07-13T08:13:11;5.38;;;2.88;;
23747;SDS011;12054;53.662;10.126;2023-07-13T08:15:37;6.68;;;2.72;;
23747;SDS011;12054;53.662;10.126;2023-07-13T08:18:02;6.03;;;2.33;;
23747;SDS011;12054;53.662;10.126;2023-07-13T08:20:28;7.80;;;2.80;;
23747;SDS011;12054;53.662;10.126;2023-07-13T08:22:53;5.15;;;1.90;;
23747;SDS011;12054;53.662;10.126;2023-07-13T08:25:19;7.30;;;2.58;;
23747;SDS011;12054;53.662;10.126;2023-07-13T08:27:45;6.07;;;2.22;;
23747;SDS011;12054;53.662;10.126;2023-07-13T08:30:11;4.10;;;2.70;;
23747;SDS011;12054;53.662;10.126;2023-07-13T08:32:37;5.50;;;2.70;;
23747;SDS011;12054;53.662;10.126;2023-07-13T08:35:03;6.45;;;2.42;;
23747;SDS011;12054;53.662;10.126;2023-07-13T08:37:30;4.70;;;2.00;;
23747;SDS011;12054;53.662;10.126;2023-07-13T08:39:55;10.00;;;2.53;;
23747;SDS011;12054;53.662;10.126;2023-07-13T08:42:24;4.82;;;2.00;;
23747;SDS011;12054;53.662;10.126;2023-07-13T08:47:36;5.65;;;2.45;;
23747;SDS011;12054;53.662;10.126;2023-07-13T08:50:08;5.55;;;2.10;;
23747;SDS011;12054;53.662;10.126;2023-07-13T08:52:39;5.22;;;2.30;;
23747;SDS011;12054;53.662;10.126;2023-07-13T08:55:23;6.32;;;2.22;;
23747;SDS011;12054;53.662;10.126;2023-07-13T08:57:55;5.03;;;2.30;;
23747;SDS011;12054;53.662;10.126;2023-07-13T09:00:29;9.48;;;2.30;;
23747;SDS011;12054;53.662;10.126;2023-07-13T09:03:02;6.32;;;2.00;;
23747;SDS011;12054;53.662;10.126;2023-07-13T09:05:31;8.55;;;2.10;;
23747;SDS011;12054;53.662;10.126;2023-07-13T09:10:49;4.90;;;1.92;;
23747;SDS011;12054;53.662;10.126;2023-07-13T09:16:08;5.10;;;1.75;;
23747;SDS011;12054;53.662;10.126;2023-07-13T09:18:38;3.65;;;1.63;;
23747;SDS011;12054;53.662;10.126;2023-07-13T09:21:13;5.72;;;1.90;;
23747;SDS011;12054;53.662;10.126;2023-07-13T09:23:45;6.03;;;2.20;;
23747;SDS011;12054;53.662;10.126;2023-07-13T09:28:42;5.90;;;2.00;;
23747;SDS011;12054;53.662;10.126;2023-07-13T09:31:11;3.95;;;1.83;;
23747;SDS011;12054;53.662;10.126;2023-07-13T09:33:42;6.38;;;2.30;;
23747;SDS011;12054;53.662;10.126;2023-07-13T09:36:16;3.38;;;1.90;;
23747;SDS011;12054;53.662;10.126;2023-07-13T09:38:49;5.60;;;1.80;;
23747;SDS011;12054;53.662;10.126;2023-07-13T09:41:31;5.65;;;2.15;;
23747;SDS011;12054;53.662;10.126;2023-07-13T09:44:10;4.30;;;2.42;;
23747;SDS011;12054;53.662;10.126;2023-07-13T09:46:36;4.10;;;1.95;;
23747;SDS011;12054;53.662;10.126;2023-07-13T09:49:03;4.53;;;1.95;;
23747;SDS011;12054;53.662;10.126;2023-07-13T09:51:29;4.03;;;2.00;;
23747;SDS011;12054;53.662;10.126;2023-07-13T09:53:54;4.20;;;2.10;;
23747;SDS011;12054;53.662;10.126;2023-07-13T09:56:25;4.93;;;2.05;;
23747;SDS011;12054;53.662;10.126;2023-07-13T09:58:54;3.38;;;1.77;;
23747;SDS011;12054;53.662;10.126;2023-07-13T10:01:36;5.55;;;2.22;;
23747;SDS011;12054;53.662;10.126;2023-07-13T10:04:10;5.43;;;1.98;;
23747;SDS011;12054;53.662;10.126;2023-07-13T10:06:38;6.43;;;2.17;;
23747;SDS011;12054;53.662;10.126;2023-07-13T10:09:06;3.55;;;2.00;;
23747;SDS011;12054;53.662;10.126;2023-07-13T10:11:34;5.35;;;2.20;;
23747;SDS011;12054;53.662;10.126;2023-07-13T10:14:02;5.47;;;2.05;;
23747;SDS011;12054;53.662;10.126;2023-07-13T10:16:36;3.92;;;1.98;;
23747;SDS011;12054;53.662;10.126;2023-07-13T10:19:06;4.35;;;2.08;;
23747;SDS011;12054;53.662;10.126;2023-07-13T10:21:50;5.35;;;2.40;;
23747;SDS011;12054;53.662;10.126;2023-07-13T10:24:24;5.78;;;2.28;;
23747;SDS011;12054;53.662;10.126;2023-07-13T10:26:53;5.10;;;2.05;;
23747;SDS011;12054;53.662;10.126;2023-07-13T10:29:29;4.53;;;1.98;;
23747;SDS011;12054;53.662;10.126;2023-07-13T10:32:00;2.88;;;1.88;;
23747;SDS011;12054;53.662;10.126;2023-07-13T10:34:26;5.65;;;2.33;;
23747;SDS011;12054;53.662;10.126;2023-07-13T10:36:52;4.20;;;2.00;;
23747;SDS011;12054;53.662;10.126;2023-07-13T10:39:26;3.25;;;2.00;;
23747;SDS011;12054;53.662;10.126;2023-07-13T10:41:58;4.80;;;2.45;;
23747;SDS011;12054;53.662;10.126;2023-07-13T10:44:29;8.00;;;2.05;;
23747;SDS011;12054;53.662;10.126;2023-07-13T10:46:57;5.55;;;2.00;;
23747;SDS011;12054;53.662;10.126;2023-07-13T10:49:26;5.43;;;2.20;;
23747;SDS011;12054;53.662;10.126;2023-07-13T10:51:54;3.20;;;1.80;;
23747;SDS011;12054;53.662;10.126;2023-07-13T10:59:47;3.55;;;1.75;;
23747;SDS011;12054;53.662;10.126;2023-07-13T11:02:29;2.85;;;1.83;;
23747;SDS011;12054;53.662;10.126;2023-07-13T11:04:56;5.30;;;1.83;;
23747;SDS011;12054;53.662;10.126;2023-07-13T11:09:52;4.97;;;2.15;;
23747;SDS011;12054;53.662;10.126;2023-07-13T11:17:24;4.15;;;2.03;;
23747;SDS011;12054;53.662;10.126;2023-07-13T11:22:42;5.22;;;1.73;;
23747;SDS011;12054;53.662;10.126;2023-07-13T11:25:32;5.07;;;2.10;;
23747;SDS011;12054;53.662;10.126;2023-07-13T11:28:10;3.10;;;1.90;;
23747;SDS011;12054;53.662;10.126;2023-07-13T11:30:59;4.38;;;2.00;;
23747;SDS011;12054;53.662;10.126;2023-07-13T11:36:15;3.70;;;1.65;;
23747;SDS011;12054;53.662;10.126;2023-07-13T11:41:35;4.82;;;2.40;;
23747;SDS011;12054;53.662;10.126;2023-07-13T11:46:37;5.00;;;2.33;;
23747;SDS011;12054;53.662;10.126;2023-07-13T11:49:04;5.95;;;1.83;;
23747;SDS011;12054;53.662;10.126;2023-07-13T11:51:33;6.13;;;1.90;;
23747;SDS011;12054;53.662;10.126;2023-07-13T11:54:04;5.13;;;2.47;;
23747;SDS011;12054;53.662;10.126;2023-07-13T11:56:46;4.38;;;1.77;;
23747;SDS011;12054;53.662;10.126;2023-07-13T11:59:12;3.75;;;1.67;;
23747;SDS011;12054;53.662;10.126;2023-07-13T12:01:42;3.97;;;1.90;;
23747;SDS011;12054;53.662;10.126;2023-07-13T12:04:18;3.13;;;1.58;;
23747;SDS011;12054;53.662;10.126;2023-07-13T12:06:47;1.80;;;1.50;;
23747;SDS011;12054;53.662;10.126;2023-07-13T12:09:23;4.18;;;1.50;;
23747;SDS011;12054;53.662;10.126;2023-07-13T12:11:51;4.13;;;1.60;;
23747;SDS011;12054;53.662;10.126;2023-07-13T12:14:18;3.92;;;1.40;;
23747;SDS011;12054;53.662;10.126;2023-07-13T12:16:45;5.22;;;1.98;;
23747;SDS011;12054;53.662;10.126;2023-07-13T12:19:16;4.30;;;1.60;;
23747;SDS011;12054;53.662;10.126;2023-07-13T12:21:44;6.40;;;1.33;;
23747;SDS011;12054;53.662;10.126;2023-07-13T12:24:18;2.88;;;1.52;;
23747;SDS011;12054;53.662;10.126;2023-07-13T12:26:50;2.80;;;1.55;;
23747;SDS011;12054;53.662;10.126;2023-07-13T12:29:28;3.03;;;1.30;;
23747;SDS011;12054;53.662;10.126;2023-07-13T12:31:57;3.38;;;1.35;;
23747;SDS011;12054;53.662;10.126;2023-07-13T12:34:24;5.40;;;1.98;;
23747;SDS011;12054;53.662;10.126;2023-07-13T12:36:51;3.90;;;1.90;;
23747;SDS011;12054;53.662;10.126;2023-07-13T12:39:20;4.75;;;1.70;;
23747;SDS011;12054;53.662;10.126;2023-07-13T12:41:49;5.15;;;1.55;;
23747;SDS011;12054;53.662;10.126;2023-07-13T12:44:17;4.68;;;1.77;;
23747;SDS011;12054;53.662;10.126;2023-07-13T12:46:53;4.45;;;1.60;;
23747;SDS011;12054;53.662;10.126;2023-07-13T12:49:30;4.45;;;1.33;;
23747;SDS011;12054;53.662;10.126;2023-07-13T12:52:00;3.92;;;1.88;;
23747;SDS011;12054;53.662;10.126;2023-07-13T12:54:32;2.78;;;1.48;;
23747;SDS011;12054;53.662;10.126;2023-07-13T12:56:58;4.10;;;1.77;;
23747;SDS011;12054;53.662;10.126;2023-07-13T12:59:25;4.32;;;1.58;;
23747;SDS011;12054;53.662;10.126;2023-07-13T13:01:56;2.38;;;1.65;;
23747;SDS011;12054;53.662;10.126;2023-07-13T13:04:21;3.67;;;1.55;;
23747;SDS011;12054;53.662;10.126;2023-07-13T13:06:48;4.22;;;1.90;;
23747;SDS011;12054;53.662;10.126;2023-07-13T13:09:15;5.18;;;1.70;;
23747;SDS011;12054;53.662;10.126;2023-07-13T13:11:41;4.00;;;1.70;;
23747;SDS011;12054;53.662;10.126;2023-07-13T13:14:07;5.45;;;1.90;;
23747;SDS011;12054;53.662;10.126;2023-07-13T13:16:44;4.95;;;1.90;;
23747;SDS011;12054;53.662;10.126;2023-07-13T13:19:28;4.25;;;1.80;;
23747;SDS011;12054;53.662;10.126;2023-07-13T13:21:54;4.28;;;2.00;;
23747;SDS011;12054;53.662;10.126;2023-07-13T13:24:24;3.67;;;1.80;;
23747;SDS011;12054;53.662;10.126;2023-07-13T13:26:51;3.97;;;2.05;;
23747;SDS011;12054;53.662;10.126;2023-07-13T13:29:19;4.50;;;1.70;;
23747;SDS011;12054;53.662;10.126;2023-07-13T13:31:51;3.53;;;2.08;;
23747;SDS011;12054;53.662;10.126;2023-07-13T13:34:17;4.30;;;2.15;;
23747;SDS011;12054;53.662;10.126;2023-07-13T13:36:44;4.75;;;1.95;;
23747;SDS011;12054;53.662;10.126;2023-07-13T13:39:24;2.65;;;1.60;;
23747;SDS011;12054;53.662;10.126;2023-07-13T13:41:54;3.25;;;1.60;;
23747;SDS011;12054;53.662;10.126;2023-07-13T13:44:20;3.25;;;1.60;;
23747;SDS011;12054;53.662;10.126;2023-07-13T13:46:56;3.45;;;1.40;;
23747;SDS011;12054;53.662;10.126;2023-07-13T13:49:23;2.30;;;1.67;;
23747;SDS011;12054;53.662;10.126;2023-07-13T13:51:51;3.33;;;1.70;;
23747;SDS011;12054;53.662;10.126;2023-07-13T13:54:20;2.70;;;1.48;;
23747;SDS011;12054;53.662;10.126;2023-07-13T13:56:48;2.30;;;1.33;;
23747;SDS011;12054;53.662;10.126;2023-07-13T13:59:16;5.05;;;1.60;;
23747;SDS011;12054;53.662;10.126;2023-07-13T14:01:42;3.55;;;1.67;;
23747;SDS011;12054;53.662;10.126;2023-07-13T14:04:13;4.18;;;1.50;;
23747;SDS011;12054;53.662;10.126;2023-07-13T14:06:42;2.65;;;1.40;;
23747;SDS011;12054;53.662;10.126;2023-07-13T14:09:12;4.05;;;1.80;;
23747;SDS011;12054;53.662;10.126;2023-07-13T14:11:43;4.72;;;1.83;;
23747;SDS011;12054;53.662;10.126;2023-07-13T14:14:13;2.88;;;1.80;;
23747;SDS011;12054;53.662;10.126;2023-07-13T14:16:41;3.58;;;1.70;;
23747;SDS011;12054;53.662;10.126;2023-07-13T14:19:07;3.40;;;1.58;;
23747;SDS011;12054;53.662;10.126;2023-07-13T14:21:36;2.92;;;1.75;;
23747;SDS011;12054;53.662;10.126;2023-07-13T14:24:01;4.60;;;1.90;;
23747;SDS011;12054;53.662;10.126;2023-07-13T14:26:27;3.72;;;2.20;;
23747;SDS011;12054;53.662;10.126;2023-07-13T14:28:54;2.55;;;1.90;;
23747;SDS011;12054;53.662;10.126;2023-07-13T14:31:21;3.60;;;2.10;;
23747;SDS011;12054;53.662;10.126;2023-07-13T14:33:49;4.22;;;1.92;;
23747;SDS011;12054;53.662;10.126;2023-07-13T14:39:05;3.25;;;1.98;;
23747;SDS011;12054;53.662;10.126;2023-07-13T14:41:41;2.17;;;1.70;;
23747;SDS011;12054;53.662;10.126;2023-07-13T14:44:10;4.57;;;1.70;;
23747;SDS011;12054;53.662;10.126;2023-07-13T14:46:39;3.25;;;1.80;;
23747;SDS011;12054;53.662;10.126;2023-07-13T14:49:21;2.95;;;1.83;;
23747;SDS011;12054;53.662;10.126;2023-07-13T14:51:57;2.33;;;1.80;;
23747;SDS011;12054;53.662;10.126;2023-07-13T14:54:25;2.97;;;2.25;;
23747;SDS011;12054;53.662;10.126;2023-07-13T14:56:52;4.82;;;2.25;;
23747;SDS011;12054;53.662;10.126;2023-07-13T14:59:17;4.78;;;2.20;;
23747;SDS011;12054;53.662;10.126;2023-07-13T15:01:46;3.55;;;2.20;;
23747;SDS011;12054;53.662;10.126;2023-07-13T15:04:13;4.82;;;2.60;;
23747;SDS011;12054;53.662;10.126;2023-07-13T15:09:29;4.95;;;2.42;;
23747;SDS011;12054;53.662;10.126;2023-07-13T15:11:55;4.63;;;2.83;;
23747;SDS011;12054;53.662;10.126;2023-07-13T15:14:21;3.72;;;2.33;;
23747;SDS011;12054;53.662;10.126;2023-07-13T15:22:26;3.28;;;1.90;;